createdAt,value
2023-02-06T00:01:26.664Z,5.70
2023-02-06T00:03:56.169Z,4.50
2023-02-06T00:06:24.236Z,4.50
2023-02-06T00:08:52.608Z,4.20
2023-02-06T00:11:21.909Z,4.30
2023-02-06T00:13:50.729Z,4.10
2023-02-06T00:16:20.980Z,4.10
2023-02-06T00:18:49.210Z,4.00
2023-02-06T00:21:20.306Z,4.20
2023-02-06T00:23:48.742Z,3.80
2023-02-06T00:28:45.228Z,3.60
2023-02-06T00:31:13.738Z,3.80
2023-02-06T00:33:42.213Z,4.10
2023-02-06T00:36:11.322Z,4.00
2023-02-06T00:38:41.114Z,4.30
2023-02-06T00:41:09.464Z,4.10
2023-02-06T00:43:38.181Z,4.20
2023-02-06T00:46:06.531Z,3.90
2023-02-06T00:48:34.664Z,4.10
2023-02-06T00:51:02.737Z,4.20
2023-02-06T00:53:30.732Z,3.90
2023-02-06T00:56:00.167Z,3.90
2023-02-06T00:58:28.144Z,3.90
2023-02-06T01:03:27.013Z,3.90
2023-02-06T01:05:55.029Z,4.30
2023-02-06T01:08:23.003Z,4.20
2023-02-06T01:10:51.098Z,4.00
2023-02-06T01:13:20.532Z,4.30
2023-02-06T01:15:50.791Z,3.90
2023-02-06T01:18:19.196Z,4.50
2023-02-06T01:20:51.105Z,3.80
2023-02-06T01:23:19.095Z,3.70
2023-02-06T01:25:47.151Z,3.40
2023-02-06T01:28:15.183Z,3.80
2023-02-06T01:30:44.636Z,3.70
2023-02-06T01:33:12.758Z,3.80
2023-02-06T01:35:40.679Z,3.40
2023-02-06T01:38:08.710Z,3.80
2023-02-06T01:40:36.736Z,3.50
2023-02-06T01:43:19.068Z,5.40
2023-02-06T01:45:48.525Z,3.20
2023-02-06T01:48:20.191Z,5.40
2023-02-06T01:50:52.673Z,3.30
2023-02-06T01:53:23.213Z,3.40
2023-02-06T01:55:52.956Z,3.80
2023-02-06T01:58:28.078Z,3.50
2023-02-06T02:00:59.820Z,3.50
2023-02-06T02:03:29.820Z,3.90
2023-02-06T02:06:01.674Z,3.70
2023-02-06T02:08:34.926Z,3.60
2023-02-06T02:11:04.726Z,4.00
2023-02-06T02:13:34.369Z,3.70
2023-02-06T02:16:12.071Z,3.80
2023-02-06T02:18:55.910Z,3.50
2023-02-06T02:22:08.730Z,3.80
2023-02-06T02:25:00.058Z,4.10
2023-02-06T02:27:53.986Z,3.60
2023-02-06T02:30:46.386Z,4.00
2023-02-06T02:33:46.436Z,3.80
2023-02-06T02:36:23.564Z,3.80
2023-02-06T02:39:09.245Z,3.80
2023-02-06T02:41:44.655Z,3.40
2023-02-06T02:44:17.659Z,3.60
2023-02-06T02:46:46.992Z,3.40
2023-02-06T02:49:17.911Z,3.50
2023-02-06T02:51:48.889Z,3.30
2023-02-06T02:54:16.915Z,3.00
2023-02-06T02:59:19.215Z,3.10
2023-02-06T03:01:53.862Z,2.90
2023-02-06T03:04:26.666Z,2.50
2023-02-06T03:07:08.211Z,3.00
2023-02-06T03:09:48.505Z,2.60
2023-02-06T03:12:23.231Z,2.50
2023-02-06T03:14:56.773Z,2.70
2023-02-06T03:17:32.761Z,2.40
2023-02-06T03:20:03.627Z,2.40
2023-02-06T03:22:36.097Z,2.50
2023-02-06T03:25:06.245Z,2.80
2023-02-06T03:27:38.038Z,2.60
2023-02-06T03:30:09.188Z,2.90
2023-02-06T03:32:43.068Z,2.90
2023-02-06T03:35:17.428Z,2.80
2023-02-06T03:37:48.334Z,2.90
2023-02-06T03:40:21.641Z,2.60
2023-02-06T03:42:53.559Z,3.00
2023-02-06T03:45:26.342Z,2.60
2023-02-06T03:47:57.693Z,2.80
2023-02-06T03:50:27.675Z,3.00
2023-02-06T03:53:00.202Z,3.00
2023-02-06T03:55:28.250Z,2.90
2023-02-06T03:58:01.626Z,3.00
2023-02-06T04:00:32.122Z,2.90
2023-02-06T04:03:01.616Z,2.80
2023-02-06T04:05:29.807Z,2.80
2023-02-06T04:08:00.223Z,2.90
2023-02-06T04:10:28.425Z,2.70
2023-02-06T04:12:57.920Z,2.50
2023-02-06T04:15:26.477Z,2.10
2023-02-06T04:18:01.093Z,2.60
2023-02-06T04:20:29.597Z,2.40
2023-02-06T04:22:59.036Z,2.30
2023-02-06T04:25:27.197Z,1.90
2023-02-06T04:27:55.378Z,2.90
2023-02-06T04:30:23.419Z,2.60
2023-02-06T04:32:51.481Z,2.40
2023-02-06T04:35:19.673Z,2.40
2023-02-06T04:37:47.805Z,2.70
2023-02-06T04:40:17.687Z,2.50
2023-02-06T04:42:45.733Z,2.20
2023-02-06T04:45:16.411Z,2.30
2023-02-06T04:47:45.093Z,2.20
2023-02-06T04:50:13.066Z,2.10
2023-02-06T04:52:41.387Z,2.40
2023-02-06T04:55:10.443Z,2.70
2023-02-06T04:57:40.209Z,2.40
2023-02-06T05:00:10.394Z,2.50
2023-02-06T05:02:40.056Z,2.40
2023-02-06T05:05:10.019Z,2.70
2023-02-06T05:07:38.474Z,2.40
2023-02-06T05:10:08.852Z,3.00
2023-02-06T05:12:37.058Z,2.80
2023-02-06T05:15:07.142Z,2.60
2023-02-06T05:17:35.144Z,2.80
2023-02-06T05:20:03.601Z,2.70
2023-02-06T05:22:31.897Z,2.80
2023-02-06T05:25:00.570Z,2.90
2023-02-06T05:27:29.679Z,3.00
2023-02-06T05:29:57.713Z,2.90
2023-02-06T05:32:27.150Z,2.80
2023-02-06T05:34:55.471Z,2.40
2023-02-06T05:39:53.964Z,2.90
2023-02-06T05:42:22.112Z,3.10
2023-02-06T05:44:50.554Z,3.00
2023-02-06T05:47:18.753Z,3.00
2023-02-06T05:49:49.520Z,3.10
2023-02-06T05:52:18.101Z,2.80
2023-02-06T05:54:48.383Z,2.70
2023-02-06T05:57:16.645Z,3.00
2023-02-06T05:59:44.722Z,2.90
2023-02-06T06:02:12.894Z,2.90
2023-02-06T06:04:40.932Z,3.00
2023-02-06T06:07:11.994Z,3.30
2023-02-06T06:09:40.171Z,3.10
2023-02-06T06:12:08.572Z,3.10
2023-02-06T06:14:36.522Z,3.20
2023-02-06T06:22:01.234Z,3.00
2023-02-06T06:24:31.006Z,3.10
2023-02-06T06:26:59.429Z,3.20
2023-02-06T06:29:28.322Z,2.80
2023-02-06T06:31:56.777Z,3.20
2023-02-06T06:36:55.741Z,3.20
2023-02-06T06:39:24.189Z,2.90
2023-02-06T06:41:53.488Z,3.20
2023-02-06T06:44:21.905Z,3.40
2023-02-06T06:46:50.124Z,3.10
2023-02-06T06:51:47.035Z,4.90
2023-02-06T06:54:15.654Z,3.30
2023-02-06T06:56:43.793Z,3.10
2023-02-06T06:59:14.414Z,3.40
2023-02-06T07:01:42.619Z,3.10
2023-02-06T07:04:10.625Z,3.70
2023-02-06T07:06:38.816Z,3.50
2023-02-06T07:09:17.043Z,3.50
2023-02-06T07:11:48.577Z,3.60
2023-02-06T07:14:18.392Z,3.20
2023-02-06T07:16:46.416Z,3.10
2023-02-06T07:19:14.417Z,3.10
2023-02-06T07:21:42.670Z,3.60
2023-02-06T07:24:10.845Z,3.40
2023-02-06T07:26:38.993Z,3.40
2023-02-06T07:29:07.211Z,3.40
2023-02-06T07:31:36.751Z,3.70
2023-02-06T07:34:05.181Z,3.70
2023-02-06T07:36:33.218Z,3.80
2023-02-06T07:39:03.401Z,3.60
2023-02-06T07:41:31.558Z,3.50
2023-02-06T07:46:28.241Z,3.60
2023-02-06T07:48:57.811Z,3.60
2023-02-06T07:56:23.687Z,3.80
2023-02-06T07:58:52.563Z,3.90
2023-02-06T08:01:21.525Z,3.70
2023-02-06T08:03:53.648Z,4.00
2023-02-06T08:06:24.772Z,3.90
2023-02-06T08:08:55.548Z,3.60
2023-02-06T08:11:26.022Z,3.90
2023-02-06T08:13:54.081Z,5.00
2023-02-06T08:16:23.982Z,3.70
2023-02-06T08:18:52.425Z,3.80
2023-02-06T08:21:23.890Z,3.90
2023-02-06T08:23:55.866Z,3.70
2023-02-06T08:26:24.658Z,3.80
2023-02-06T08:28:53.663Z,3.90
2023-02-06T08:31:23.680Z,3.70
2023-02-06T08:33:52.520Z,4.10
2023-02-06T08:36:23.732Z,4.00
2023-02-06T08:38:53.170Z,3.70
2023-02-06T08:41:22.936Z,4.40
2023-02-06T08:43:52.782Z,4.30
2023-02-06T08:46:22.334Z,2.10
2023-02-06T08:48:50.353Z,4.20
2023-02-06T08:51:18.796Z,4.20
2023-02-06T08:53:48.905Z,4.00
2023-02-06T08:56:16.986Z,5.50
2023-02-06T08:58:45.033Z,4.10
2023-02-06T09:01:16.622Z,4.00
2023-02-06T09:03:45.629Z,4.10
2023-02-06T09:06:14.738Z,4.00
2023-02-06T09:08:43.567Z,4.00
2023-02-06T09:11:15.666Z,4.10
2023-02-06T09:13:45.118Z,4.30
2023-02-06T09:16:13.488Z,4.00
2023-02-06T09:18:42.279Z,4.40
2023-02-06T09:21:12.172Z,4.20
2023-02-06T09:23:40.883Z,4.10
2023-02-06T09:28:39.076Z,4.50
2023-02-06T09:31:08.834Z,4.60
2023-02-06T09:33:38.542Z,4.60
2023-02-06T09:36:08.767Z,4.50
2023-02-06T09:38:37.549Z,4.70
2023-02-06T09:41:12.748Z,4.70
2023-02-06T09:43:46.176Z,4.80
2023-02-06T09:46:16.799Z,4.90
2023-02-06T09:48:44.897Z,4.90
2023-02-06T09:51:19.975Z,5.00
2023-02-06T09:53:58.097Z,5.10
2023-02-06T09:56:37.494Z,5.10
2023-02-06T09:59:15.511Z,5.00
2023-02-06T10:01:51.554Z,5.40
2023-02-06T10:04:34.357Z,5.10
2023-02-06T10:07:17.353Z,5.30
2023-02-06T10:09:50.808Z,6.90
2023-02-06T10:12:24.834Z,5.40
2023-02-06T10:14:58.162Z,3.30
2023-02-06T10:17:30.241Z,5.10
2023-02-06T10:20:02.348Z,5.10
2023-02-06T10:22:39.539Z,5.10
2023-02-06T10:25:23.387Z,5.30
2023-02-06T10:27:57.667Z,5.20
2023-02-06T10:30:39.925Z,5.20
2023-02-06T10:33:25.257Z,5.00
2023-02-06T10:36:01.780Z,4.90
2023-02-06T10:39:00.673Z,5.00
2023-02-06T10:41:35.395Z,4.90
2023-02-06T10:44:11.698Z,4.70
2023-02-06T10:46:44.769Z,5.00
2023-02-06T10:49:16.485Z,4.90
2023-02-06T10:51:49.140Z,4.70
2023-02-06T10:54:22.109Z,4.30
2023-02-06T10:56:52.757Z,4.70
2023-02-06T10:59:28.416Z,4.80
2023-02-06T11:02:18.516Z,4.30
2023-02-06T11:04:52.408Z,4.70
2023-02-06T11:07:27.205Z,4.80
2023-02-06T11:09:55.779Z,5.00
2023-02-06T11:12:30.894Z,5.20
2023-02-06T11:15:02.766Z,5.70
2023-02-06T11:17:32.590Z,5.50
2023-02-06T11:20:16.518Z,5.90
2023-02-06T11:22:52.675Z,6.20
2023-02-06T11:25:26.864Z,6.40
2023-02-06T11:27:55.764Z,6.20
2023-02-06T11:30:32.415Z,6.00
2023-02-06T11:33:05.188Z,5.90
2023-02-06T11:35:38.965Z,5.80
2023-02-06T11:38:17.595Z,5.60
2023-02-06T11:40:55.450Z,5.40
2023-02-06T11:43:25.558Z,5.30
2023-02-06T11:46:18.661Z,5.50
2023-02-06T11:48:49.153Z,5.60
2023-02-06T11:51:17.842Z,5.80
2023-02-06T11:53:58.030Z,6.30
2023-02-06T11:56:26.667Z,6.40
2023-02-06T11:59:06.956Z,6.50
2023-02-06T12:01:43.877Z,6.60
2023-02-06T12:04:23.930Z,6.40
2023-02-06T12:06:56.465Z,6.60
2023-02-06T12:09:24.568Z,6.30
2023-02-06T12:11:58.134Z,6.40
2023-02-06T12:14:34.592Z,6.60
2023-02-06T12:17:06.973Z,6.40
2023-02-06T12:19:45.989Z,6.40
2023-02-06T12:22:19.183Z,6.50
2023-02-06T12:24:50.469Z,6.80
2023-02-06T12:27:21.865Z,6.90
2023-02-06T12:29:58.189Z,6.60
2023-02-06T12:32:31.614Z,6.80
2023-02-06T12:35:14.546Z,6.90
2023-02-06T12:37:48.704Z,6.90
2023-02-06T12:40:32.694Z,6.70
2023-02-06T12:43:04.786Z,6.60
2023-02-06T12:45:41.004Z,6.60
2023-02-06T12:48:17.073Z,6.10
2023-02-06T12:50:50.134Z,6.30
2023-02-06T12:53:19.956Z,6.10
2023-02-06T12:55:54.067Z,5.60
2023-02-06T12:58:26.321Z,5.90
2023-02-06T13:01:14.389Z,5.90
2023-02-06T13:03:52.960Z,5.90
2023-02-06T13:06:25.159Z,5.90
2023-02-06T13:08:57.789Z,6.00
2023-02-06T13:11:30.036Z,5.70
2023-02-06T13:14:18.096Z,5.70
2023-02-06T13:16:52.005Z,5.90
2023-02-06T13:19:56.245Z,5.90
2023-02-06T13:22:44.780Z,6.40
2023-02-06T13:25:53.165Z,6.10
2023-02-06T13:29:04.230Z,6.60
2023-02-06T13:31:35.472Z,6.90
2023-02-06T13:34:09.298Z,7.30
2023-02-06T13:36:49.348Z,7.20
2023-02-06T13:39:31.328Z,7.00
2023-02-06T13:42:23.402Z,6.90
2023-02-06T13:44:52.763Z,7.00
2023-02-06T13:47:47.979Z,6.30
2023-02-06T13:50:35.522Z,6.80
2023-02-06T13:53:39.186Z,6.60
2023-02-06T13:56:27.925Z,6.60
2023-02-06T13:59:00.548Z,6.30
2023-02-06T14:01:31.065Z,6.40
2023-02-06T14:04:00.815Z,6.50
2023-02-06T14:06:43.717Z,6.70
2023-02-06T14:09:43.857Z,7.20
2023-02-06T14:12:34.446Z,7.60
2023-02-06T14:15:15.362Z,7.30
2023-02-06T14:17:59.338Z,7.80
2023-02-06T14:20:38.365Z,6.90
2023-02-06T14:23:15.698Z,7.10
2023-02-06T14:26:00.541Z,6.90
2023-02-06T14:28:38.533Z,6.90
2023-02-06T14:31:19.155Z,6.90
2023-02-06T14:34:10.178Z,7.00
2023-02-06T14:37:00.542Z,7.00
2023-02-06T14:39:40.640Z,7.10
2023-02-06T14:42:14.097Z,6.50
2023-02-06T14:44:45.725Z,6.80
2023-02-06T14:47:20.650Z,6.60
2023-02-06T14:49:50.455Z,6.20
2023-02-06T14:52:22.254Z,6.40
2023-02-06T14:54:50.583Z,6.30
2023-02-06T14:57:24.982Z,6.40
2023-02-06T14:59:57.539Z,4.80
2023-02-06T15:02:30.018Z,6.20
2023-02-06T15:04:59.574Z,6.50
2023-02-06T15:07:31.414Z,6.50
2023-02-06T15:10:04.176Z,6.40
2023-02-06T15:12:32.228Z,6.30
2023-02-06T15:15:05.337Z,6.30
2023-02-06T15:17:34.073Z,6.20
2023-02-06T15:20:29.055Z,5.90
2023-02-06T15:23:11.693Z,6.00
2023-02-06T15:25:57.466Z,6.00
2023-02-06T15:28:29.596Z,6.00
2023-02-06T15:31:01.136Z,5.60
2023-02-06T15:33:32.015Z,5.70
2023-02-06T15:36:01.945Z,5.90
2023-02-06T15:38:33.143Z,5.90
2023-02-06T15:41:04.273Z,5.90
2023-02-06T15:43:32.853Z,5.90
2023-02-06T15:46:04.612Z,5.40
2023-02-06T15:48:35.856Z,5.90
2023-02-06T15:51:17.975Z,5.80
2023-02-06T15:53:48.660Z,5.70
2023-02-06T15:56:26.019Z,6.10
2023-02-06T15:59:00.191Z,6.00
2023-02-06T16:01:32.172Z,6.10
2023-02-06T16:04:04.266Z,5.90
2023-02-06T16:09:03.120Z,5.60
2023-02-06T16:11:52.133Z,5.40
2023-02-06T16:14:35.663Z,5.00
2023-02-06T16:17:26.719Z,5.20
2023-02-06T16:20:03.029Z,5.10
2023-02-06T16:22:32.725Z,5.00
2023-02-06T16:25:20.899Z,4.70
2023-02-06T16:27:51.244Z,4.80
2023-02-06T16:30:26.386Z,4.90
2023-02-06T16:32:57.639Z,4.90
2023-02-06T16:35:27.364Z,4.10
2023-02-06T16:37:56.481Z,4.20
2023-02-06T16:40:28.712Z,4.20
2023-02-06T16:42:56.759Z,4.60
2023-02-06T16:45:26.933Z,4.00
2023-02-06T16:47:56.848Z,4.30
2023-02-06T16:50:25.115Z,4.30
2023-02-06T16:52:56.611Z,4.20
2023-02-06T16:55:26.200Z,3.70
2023-02-06T16:57:58.642Z,3.90
2023-02-06T17:00:30.998Z,4.00
2023-02-06T17:03:01.325Z,4.10
2023-02-06T17:05:31.486Z,3.90
2023-02-06T17:07:59.478Z,3.70
2023-02-06T17:10:28.093Z,3.80
2023-02-06T17:15:24.496Z,4.00
2023-02-06T17:17:55.008Z,4.00
2023-02-06T17:20:30.854Z,3.70
2023-02-06T17:22:59.003Z,3.40
2023-02-06T17:25:27.595Z,3.40
2023-02-06T17:27:56.901Z,3.30
2023-02-06T17:30:30.099Z,5.60
2023-02-06T17:32:58.106Z,3.30
2023-02-06T17:35:27.757Z,3.30
2023-02-06T17:37:55.722Z,3.50
2023-02-06T17:40:26.863Z,3.20
2023-02-06T17:45:23.554Z,3.40
2023-02-06T17:47:51.696Z,3.30
2023-02-06T17:50:21.385Z,3.00
2023-02-06T17:52:52.718Z,3.10
2023-02-06T17:55:21.025Z,3.10
2023-02-06T17:57:49.024Z,2.70
2023-02-06T18:00:19.089Z,3.20
2023-02-06T18:02:47.466Z,3.20
2023-02-06T18:05:16.652Z,3.10
2023-02-06T18:07:44.659Z,3.00
2023-02-06T18:10:15.304Z,2.80
2023-02-06T18:15:13.742Z,2.70
2023-02-06T18:17:42.172Z,3.00
2023-02-06T18:20:12.398Z,2.70
2023-02-06T18:22:41.530Z,3.10
2023-02-06T18:25:11.030Z,3.00
2023-02-06T18:27:41.157Z,3.10
2023-02-06T18:30:11.062Z,3.00
2023-02-06T18:32:39.541Z,2.70
2023-02-06T18:35:08.874Z,2.90
2023-02-06T18:37:37.282Z,2.80
2023-02-06T18:40:05.888Z,2.80
2023-02-06T18:42:50.836Z,2.80
2023-02-06T18:45:21.064Z,2.90
2023-02-06T18:47:51.375Z,2.50
2023-02-06T18:50:21.908Z,2.80
2023-02-06T18:52:50.576Z,1.40
2023-02-06T18:55:22.231Z,2.40
2023-02-06T18:57:50.699Z,2.30
2023-02-06T19:00:22.984Z,2.20
2023-02-06T19:02:51.546Z,2.60
2023-02-06T19:05:19.998Z,2.60
2023-02-06T19:07:50.765Z,2.70
2023-02-06T19:10:19.695Z,2.40
2023-02-06T19:12:48.823Z,2.80
2023-02-06T19:15:17.368Z,2.50
2023-02-06T19:17:46.748Z,2.50
2023-02-06T19:20:14.822Z,2.40
2023-02-06T19:22:42.955Z,2.50
2023-02-06T19:25:14.443Z,2.80
2023-02-06T19:27:43.675Z,2.40
2023-02-06T19:30:14.103Z,2.20
2023-02-06T19:32:42.333Z,2.40
2023-02-06T19:35:13.232Z,2.30
2023-02-06T19:40:10.508Z,2.10
2023-02-06T19:42:40.032Z,2.70
2023-02-06T19:45:08.508Z,2.50
2023-02-06T19:47:37.250Z,2.30
2023-02-06T19:50:06.086Z,2.30
2023-02-06T19:52:35.503Z,2.20
2023-02-06T19:55:03.963Z,2.20
2023-02-06T19:57:32.095Z,2.30
2023-02-06T20:00:00.304Z,2.10
2023-02-06T20:02:28.488Z,2.10
2023-02-06T20:04:56.701Z,2.20
2023-02-06T20:07:24.692Z,2.10
2023-02-06T20:09:55.863Z,1.90
2023-02-06T20:14:52.901Z,1.90
2023-02-06T20:17:21.613Z,2.10
2023-02-06T20:19:49.622Z,2.20
2023-02-06T20:22:17.792Z,1.90
2023-02-06T20:24:46.049Z,2.10
2023-02-06T20:27:15.529Z,1.80
2023-02-06T20:29:45.834Z,2.20
2023-02-06T20:32:15.560Z,2.20
2023-02-06T20:34:43.717Z,1.50
2023-02-06T20:37:11.633Z,1.70
2023-02-06T20:39:39.841Z,1.70
2023-02-06T20:42:07.895Z,1.60
2023-02-06T20:44:37.362Z,2.00
2023-02-06T20:47:05.527Z,1.60
2023-02-06T20:49:33.583Z,1.70
2023-02-06T20:52:03.217Z,1.30
2023-02-06T20:54:31.299Z,1.80
2023-02-06T20:57:00.397Z,1.70
2023-02-06T20:59:28.638Z,1.40
2023-02-06T21:01:58.591Z,1.40
2023-02-06T21:04:26.921Z,1.90
2023-02-06T21:06:55.518Z,1.80
2023-02-06T21:09:23.542Z,1.70
2023-02-06T21:11:51.683Z,1.80
2023-02-06T21:14:20.477Z,1.30
2023-02-06T21:16:49.324Z,1.40
2023-02-06T21:19:20.846Z,1.30
2023-02-06T21:21:49.123Z,1.70
2023-02-06T21:24:18.237Z,1.90
2023-02-06T21:26:46.577Z,1.40
2023-02-06T21:29:16.218Z,1.90
2023-02-06T21:31:46.096Z,1.40
2023-02-06T21:34:17.193Z,1.50
2023-02-06T21:36:47.326Z,1.30
2023-02-06T21:39:19.707Z,1.30
2023-02-06T21:41:51.611Z,1.50
2023-02-06T21:44:19.774Z,1.80
2023-02-06T21:46:47.752Z,1.20
2023-02-06T21:49:15.902Z,1.70
2023-02-06T21:51:44.379Z,1.40
2023-02-06T21:54:14.821Z,-1.20
2023-02-06T21:59:13.090Z,1.20
2023-02-06T22:01:41.603Z,1.40
2023-02-06T22:04:10.957Z,1.30
2023-02-06T22:06:39.686Z,1.00
2023-02-06T22:09:10.381Z,1.30
2023-02-06T22:11:41.319Z,1.00
2023-02-06T22:14:12.699Z,1.80
2023-02-06T22:16:41.608Z,1.20
2023-02-06T22:19:11.552Z,1.30
2023-02-06T22:21:40.299Z,1.20
2023-02-06T22:24:09.960Z,1.60
2023-02-06T22:26:41.555Z,1.20
2023-02-06T22:29:12.682Z,0.90
2023-02-06T22:31:43.067Z,0.80
2023-02-06T22:34:14.896Z,0.80
2023-02-06T22:36:44.473Z,0.40
2023-02-06T22:39:13.864Z,0.80
2023-02-06T22:41:45.515Z,0.70
2023-02-06T22:44:16.664Z,0.50
2023-02-06T22:46:46.928Z,0.60
2023-02-06T22:49:15.643Z,0.50
2023-02-06T22:51:44.168Z,0.80
2023-02-06T22:54:12.537Z,0.80
2023-02-06T22:56:43.571Z,0.70
2023-02-06T22:59:18.089Z,0.10
2023-02-06T23:01:47.679Z,0.60
2023-02-06T23:04:17.934Z,0.90
2023-02-06T23:06:46.854Z,1.20
2023-02-06T23:09:17.268Z,1.10
2023-02-06T23:11:50.830Z,0.60
2023-02-06T23:14:20.022Z,0.40
2023-02-06T23:16:48.380Z,0.80
2023-02-06T23:19:17.080Z,0.50
2023-02-06T23:21:46.867Z,0.50
2023-02-06T23:24:15.824Z,0.60
2023-02-06T23:26:47.641Z,0.40
2023-02-06T23:29:17.900Z,0.70
2023-02-06T23:31:47.400Z,1.20
2023-02-06T23:34:24.623Z,0.60
2023-02-06T23:36:53.226Z,0.40
2023-02-06T23:39:21.392Z,0.40
2023-02-06T23:41:50.893Z,0.60
2023-02-06T23:44:19.047Z,0.60
2023-02-06T23:46:47.781Z,0.90
2023-02-06T23:49:16.221Z,0.80
2023-02-06T23:54:12.547Z,0.40
2023-02-06T23:56:40.940Z,0.80
2023-02-06T23:59:11.330Z,0.70
